EDDE/ERF METAR and TAF weather

Enter ICAO airport designator
Station Type Date Time Source
EDDE METAR 2018/12/11 00:20 UTC NOAA

EDDE 110020Z 27017KT 9999 -SHSNRA FEW008 SCT020CB SCT038 02/01 Q1015


Station Type Date Time Source
EDDE Decoded METAR 2018/12/11 00:20 UTC NOAA

Erfurt-Bindersleben, Germany (EDDE) 50-59N 010-58E 322M
Dec 10, 2018 - 07:20 PM EST / 2018.12.11 0020 UTC
Wind: from the W (270 degrees) at 20 MPH (17 KT):0
Visibility: greater than 7 mile(s):0
Sky conditions: partly cloudy
Weather: light snow showers, rain; Cumulonimbus clouds observed
Temperature: 35 F (2 C)
Windchill: 24 F (-4 C):1
Dew Point: 33 F (1 C)
Relative Humidity: 93%
Pressure (altimeter): 29.97 in. Hg (1015 hPa)
ob: EDDE 110020Z 27017KT 9999 -SHSNRA FEW008 SCT020CB SCT038 02/01 Q1015
cycle: 0

Station Type Date Time Source
EDDE TAF 2018/12/10 18:30 UTC NOAA

TAF EDDE 101700Z 1018/1118 28015G25KT 9999 BKN035 PROB30
TEMPO 1018/1109 3500 -SHRASN BKN012CB
BECMG 1113/1115 30010KT


Example: see airport list